createdAt,value
2022-08-25T00:00:14.229Z,4.53
2022-08-25T00:02:43.806Z,4.00
2022-08-25T00:05:29.140Z,4.63
2022-08-25T00:07:56.427Z,4.15
2022-08-25T00:10:23.710Z,4.93
2022-08-25T00:12:50.912Z,4.32
2022-08-25T00:15:18.315Z,4.22
2022-08-25T00:17:45.680Z,4.35
2022-08-25T00:20:13.058Z,4.55
2022-08-25T00:22:40.101Z,4.47
2022-08-25T00:25:07.763Z,4.25
2022-08-25T00:27:34.816Z,4.35
2022-08-25T00:30:01.959Z,4.90
2022-08-25T00:32:29.134Z,5.22
2022-08-25T00:34:57.792Z,5.10
2022-08-25T00:37:24.951Z,5.55
2022-08-25T00:39:53.279Z,4.80
2022-08-25T00:42:21.191Z,4.70
2022-08-25T00:44:48.243Z,4.70
2022-08-25T00:47:15.363Z,5.65
2022-08-25T00:49:46.415Z,4.53
2022-08-25T00:52:27.274Z,4.43
2022-08-25T00:55:21.481Z,5.47
2022-08-25T00:57:55.551Z,5.10
2022-08-25T01:00:30.279Z,4.80
2022-08-25T01:02:58.120Z,4.43
2022-08-25T01:05:26.547Z,4.50
2022-08-25T01:07:58.557Z,4.75
2022-08-25T01:10:27.086Z,5.03
2022-08-25T01:12:58.546Z,5.00
2022-08-25T01:15:25.625Z,5.00
2022-08-25T01:17:55.069Z,4.93
2022-08-25T01:20:29.344Z,5.50
2022-08-25T01:22:57.547Z,5.85
2022-08-25T01:25:30.536Z,5.10
2022-08-25T01:27:57.756Z,5.47
2022-08-25T01:30:26.193Z,5.00
2022-08-25T01:32:53.239Z,5.40
2022-08-25T01:35:20.676Z,5.25
2022-08-25T01:37:48.407Z,5.60
2022-08-25T01:40:15.630Z,5.38
2022-08-25T01:42:59.067Z,6.13
2022-08-25T01:45:26.883Z,5.72
2022-08-25T01:47:55.978Z,5.60
2022-08-25T01:50:23.723Z,5.63
2022-08-25T01:52:56.974Z,5.82
2022-08-25T01:55:24.049Z,5.80
2022-08-25T01:57:51.224Z,5.35
2022-08-25T02:00:19.867Z,5.68
2022-08-25T02:02:47.163Z,5.47
2022-08-25T02:05:23.351Z,5.60
2022-08-25T02:07:51.134Z,5.53
2022-08-25T02:10:18.424Z,5.25
2022-08-25T02:12:45.633Z,5.70
2022-08-25T02:15:13.022Z,5.72
2022-08-25T02:17:40.276Z,6.20
2022-08-25T02:20:09.717Z,5.97
2022-08-25T02:22:37.110Z,5.73
2022-08-25T02:25:05.902Z,6.15
2022-08-25T02:27:33.144Z,5.15
2022-08-25T02:30:00.174Z,5.50
2022-08-25T02:32:28.014Z,6.28
2022-08-25T02:34:58.502Z,5.32
2022-08-25T02:37:25.650Z,5.43
2022-08-25T02:39:52.692Z,5.97
2022-08-25T02:42:20.005Z,6.28
2022-08-25T02:44:48.260Z,6.38
2022-08-25T02:47:15.505Z,5.55
2022-08-25T02:49:43.090Z,6.07
2022-08-25T02:52:10.245Z,5.70
2022-08-25T02:54:37.918Z,6.95
2022-08-25T02:57:05.101Z,6.40
2022-08-25T02:59:32.164Z,6.40
2022-08-25T03:01:59.504Z,6.95
2022-08-25T03:04:27.467Z,6.55
2022-08-25T03:06:54.545Z,6.80
2022-08-25T03:09:21.767Z,6.10
2022-08-25T03:11:49.265Z,6.30
2022-08-25T03:14:16.688Z,5.95
2022-08-25T03:16:46.267Z,5.82
2022-08-25T03:19:13.899Z,6.20
2022-08-25T03:21:40.952Z,6.22
2022-08-25T03:24:08.205Z,6.35
2022-08-25T03:26:53.805Z,6.10
2022-08-25T03:29:26.574Z,6.05
2022-08-25T03:32:01.208Z,6.07
2022-08-25T03:34:30.397Z,6.57
2022-08-25T03:36:58.259Z,6.10
2022-08-25T03:39:26.825Z,6.47
2022-08-25T03:41:54.306Z,6.40
2022-08-25T03:44:22.015Z,6.72
2022-08-25T03:46:51.618Z,6.88
2022-08-25T03:49:22.857Z,7.35
2022-08-25T03:51:52.249Z,7.00
2022-08-25T03:54:23.305Z,6.35
2022-08-25T03:56:50.427Z,6.40
2022-08-25T03:59:18.780Z,6.53
2022-08-25T04:01:51.384Z,7.18
2022-08-25T04:04:21.728Z,6.43
2022-08-25T04:06:48.838Z,6.38
2022-08-25T04:09:16.047Z,6.47
2022-08-25T04:11:43.085Z,6.18
2022-08-25T04:14:13.001Z,7.05
2022-08-25T04:16:43.368Z,6.35
2022-08-25T04:19:11.121Z,6.78
2022-08-25T04:21:39.603Z,6.78
2022-08-25T04:24:09.272Z,6.93
2022-08-25T04:26:41.031Z,6.47
2022-08-25T04:29:10.032Z,6.97
2022-08-25T04:31:40.242Z,6.22
2022-08-25T04:34:28.433Z,7.82
2022-08-25T04:36:55.198Z,7.00
2022-08-25T04:39:26.677Z,6.88
2022-08-25T04:41:54.099Z,6.88
2022-08-25T04:44:21.346Z,7.00
2022-08-25T04:46:49.336Z,7.05
2022-08-25T04:49:16.518Z,6.78
2022-08-25T04:51:44.496Z,6.38
2022-08-25T04:54:22.955Z,6.32
2022-08-25T04:56:54.512Z,6.38
2022-08-25T04:59:27.342Z,6.32
2022-08-25T05:01:59.491Z,6.05
2022-08-25T05:04:27.734Z,6.25
2022-08-25T05:06:56.615Z,6.35
2022-08-25T05:09:25.229Z,6.03
2022-08-25T05:11:53.953Z,6.18
2022-08-25T05:14:26.319Z,5.78
2022-08-25T05:16:54.978Z,6.07
2022-08-25T05:19:24.538Z,5.80
2022-08-25T05:21:52.231Z,5.68
2022-08-25T05:24:20.536Z,5.63
2022-08-25T05:26:47.658Z,5.70
2022-08-25T05:29:15.743Z,6.05
2022-08-25T05:31:49.590Z,6.07
2022-08-25T05:34:19.063Z,5.93
2022-08-25T05:36:47.569Z,6.30
2022-08-25T05:39:14.830Z,6.20
2022-08-25T05:41:42.027Z,6.50
2022-08-25T05:44:09.188Z,6.32
2022-08-25T05:46:36.795Z,6.45
2022-08-25T05:49:04.083Z,6.55
2022-08-25T05:51:31.150Z,6.50
2022-08-25T05:53:58.214Z,6.70
2022-08-25T05:56:25.361Z,6.57
2022-08-25T05:58:52.478Z,6.78
2022-08-25T06:01:40.877Z,7.60
2022-08-25T06:04:11.100Z,7.13
2022-08-25T06:06:39.541Z,6.85
2022-08-25T06:09:08.854Z,6.85
2022-08-25T06:11:38.108Z,6.53
2022-08-25T06:14:05.512Z,7.07
2022-08-25T06:16:33.121Z,7.07
2022-08-25T06:19:01.241Z,6.97
2022-08-25T06:21:28.469Z,7.40
2022-08-25T06:23:55.984Z,7.60
2022-08-25T06:26:23.528Z,7.43
2022-08-25T06:28:52.231Z,7.10
2022-08-25T06:31:20.665Z,7.85
2022-08-25T06:33:47.895Z,7.10
2022-08-25T06:36:15.794Z,7.28
2022-08-25T06:38:43.150Z,6.97
2022-08-25T06:41:14.047Z,6.80
2022-08-25T06:43:48.081Z,6.75
2022-08-25T06:46:28.839Z,6.90
2022-08-25T06:49:08.318Z,7.22
2022-08-25T06:51:36.355Z,7.13
2022-08-25T06:54:06.455Z,7.55
2022-08-25T06:59:03.304Z,7.60
2022-08-25T07:01:32.263Z,7.18
2022-08-25T07:04:02.186Z,7.67
2022-08-25T07:06:32.073Z,7.60
2022-08-25T07:08:59.605Z,7.22
2022-08-25T07:11:26.875Z,7.57
2022-08-25T07:13:53.982Z,7.00
2022-08-25T07:16:21.723Z,8.07
2022-08-25T07:18:49.765Z,7.53
2022-08-25T07:21:18.786Z,7.35
2022-08-25T07:23:47.750Z,7.07
2022-08-25T07:29:11.730Z,7.00
2022-08-25T07:31:39.204Z,7.80
2022-08-25T07:34:26.362Z,7.47
2022-08-25T07:36:55.006Z,6.82
2022-08-25T07:39:22.943Z,6.85
2022-08-25T07:41:51.872Z,7.65
2022-08-25T07:44:21.283Z,7.07
2022-08-25T07:46:50.342Z,7.30
2022-08-25T07:49:23.218Z,7.00
2022-08-25T07:52:03.682Z,7.05
2022-08-25T07:54:34.163Z,6.82
2022-08-25T07:57:03.578Z,7.25
2022-08-25T07:59:39.267Z,7.32
2022-08-25T08:02:16.108Z,7.18
2022-08-25T08:04:49.607Z,7.97
2022-08-25T08:07:42.014Z,7.95
2022-08-25T08:13:00.702Z,7.68
2022-08-25T08:15:29.704Z,7.18
2022-08-25T08:17:59.091Z,6.75
2022-08-25T08:20:27.452Z,7.10
2022-08-25T08:22:55.758Z,6.93
2022-08-25T08:25:26.591Z,6.72
2022-08-25T08:27:55.269Z,6.38
2022-08-25T08:30:26.647Z,7.40
2022-08-25T08:33:11.740Z,7.60
2022-08-25T08:35:41.217Z,6.82
2022-08-25T08:38:14.733Z,7.22
2022-08-25T08:41:54.246Z,7.78
2022-08-25T08:44:46.393Z,6.93
2022-08-25T08:47:37.691Z,7.50
2022-08-25T08:50:28.139Z,6.80
2022-08-25T08:53:33.918Z,6.85
2022-08-25T08:56:19.502Z,8.10
2022-08-25T08:58:59.662Z,7.28
2022-08-25T09:01:34.561Z,7.40
2022-08-25T09:04:26.400Z,7.65
2022-08-25T09:06:56.577Z,7.72
2022-08-25T09:09:30.356Z,7.40
2022-08-25T09:12:12.011Z,7.68
2022-08-25T09:14:54.866Z,8.02
2022-08-25T09:17:54.701Z,7.68
2022-08-25T09:20:31.172Z,7.90
2022-08-25T09:23:32.655Z,7.43
2022-08-25T09:26:17.283Z,7.68
2022-08-25T09:28:55.476Z,6.88
2022-08-25T09:31:29.566Z,7.22
2022-08-25T09:34:00.219Z,6.93
2022-08-25T09:38:55.523Z,6.28
2022-08-25T09:41:57.539Z,6.28
2022-08-25T09:44:38.887Z,6.45
2022-08-25T09:47:25.081Z,6.25
2022-08-25T09:50:00.836Z,5.95
2022-08-25T09:52:33.193Z,6.15
2022-08-25T09:55:16.615Z,7.68
2022-08-25T09:57:43.928Z,6.00
2022-08-25T10:00:21.898Z,7.40
2022-08-25T10:03:10.252Z,6.53
2022-08-25T10:05:49.459Z,6.55
2022-08-25T10:08:39.675Z,6.65
2022-08-25T10:11:15.991Z,6.35
2022-08-25T10:13:49.153Z,6.80
2022-08-25T10:16:35.645Z,6.60
2022-08-25T10:19:10.136Z,6.30
2022-08-25T10:21:39.973Z,6.78
2022-08-25T10:24:09.423Z,6.63
2022-08-25T10:27:06.191Z,6.95
2022-08-25T10:29:52.185Z,6.63
2022-08-25T10:32:31.607Z,7.68
2022-08-25T10:35:02.751Z,8.13
2022-08-25T10:37:35.722Z,10.23
2022-08-25T10:40:35.107Z,14.02
2022-08-25T10:43:41.543Z,18.83
2022-08-25T10:46:37.085Z,14.23
2022-08-25T10:49:06.699Z,14.80
2022-08-25T10:51:35.661Z,12.85
2022-08-25T10:54:20.403Z,14.75
2022-08-25T10:57:03.479Z,14.48
2022-08-25T10:59:49.717Z,17.88
2022-08-25T11:02:41.451Z,14.80
2022-08-25T11:05:12.357Z,17.63
2022-08-25T11:07:49.673Z,16.73
2022-08-25T11:10:22.826Z,17.42
2022-08-25T11:13:03.871Z,16.42
2022-08-25T11:16:13.200Z,16.65
2022-08-25T11:18:37.358Z,13.77
2022-08-25T11:21:13.051Z,13.52
2022-08-25T11:23:53.608Z,14.60
2022-08-25T11:29:13.560Z,10.70
2022-08-25T11:31:46.509Z,9.50
2022-08-25T11:34:19.637Z,9.98
2022-08-25T11:36:57.311Z,9.50
2022-08-25T11:39:46.116Z,9.13
2022-08-25T11:42:19.883Z,9.35
2022-08-25T11:45:12.897Z,9.85
2022-08-25T11:47:46.803Z,8.25
2022-08-25T11:50:36.077Z,8.77
2022-08-25T11:53:28.228Z,8.38
2022-08-25T11:56:03.098Z,8.07
2022-08-25T11:58:36.942Z,7.13
2022-08-25T12:01:06.194Z,7.65
2022-08-25T12:03:35.861Z,7.50
2022-08-25T12:09:01.672Z,7.05
2022-08-25T12:11:51.440Z,7.60
2022-08-25T12:14:24.794Z,6.88
2022-08-25T12:16:55.717Z,7.72
2022-08-25T12:19:35.749Z,6.75
2022-08-25T12:22:03.927Z,6.90
2022-08-25T12:24:47.819Z,6.85
2022-08-25T12:27:42.967Z,6.78
2022-08-25T12:30:29.158Z,7.00
2022-08-25T12:33:12.658Z,7.43
2022-08-25T12:36:00.367Z,7.32
2022-08-25T12:38:46.271Z,6.78
2022-08-25T12:41:22.299Z,6.75
2022-08-25T12:43:54.599Z,6.57
2022-08-25T12:46:21.900Z,6.57
2022-08-25T12:49:02.320Z,6.05
2022-08-25T12:51:51.172Z,6.28
2022-08-25T12:54:36.401Z,7.72
2022-08-25T12:57:45.042Z,6.82
2022-08-25T13:03:14.237Z,6.47
2022-08-25T13:05:44.945Z,6.25
2022-08-25T13:08:33.725Z,7.18
2022-08-25T13:11:22.648Z,7.28
2022-08-25T13:14:05.264Z,6.70
2022-08-25T13:16:33.946Z,7.25
2022-08-25T13:19:05.478Z,7.65
2022-08-25T13:21:38.428Z,7.13
2022-08-25T13:24:12.672Z,6.82
2022-08-25T13:26:47.271Z,7.03
2022-08-25T13:29:21.551Z,6.75
2022-08-25T13:31:54.584Z,6.60
2022-08-25T13:34:34.526Z,6.65
2022-08-25T13:37:25.705Z,7.13
2022-08-25T13:40:24.752Z,6.45
2022-08-25T13:43:02.710Z,6.68
2022-08-25T13:45:41.605Z,7.47
2022-08-25T13:48:14.114Z,6.78
2022-08-25T13:50:51.850Z,6.10
2022-08-25T13:53:26.010Z,6.75
2022-08-25T13:55:59.739Z,6.70
2022-08-25T13:58:38.978Z,6.97
2022-08-25T14:01:49.103Z,7.13
2022-08-25T14:04:50.844Z,7.00
2022-08-25T14:07:21.708Z,6.90
2022-08-25T14:09:52.200Z,7.22
2022-08-25T14:12:31.570Z,7.38
2022-08-25T14:15:06.053Z,7.60
2022-08-25T14:17:39.720Z,7.82
2022-08-25T14:20:17.624Z,8.10
2022-08-25T14:22:44.809Z,6.97
2022-08-25T14:25:12.169Z,7.43
2022-08-25T14:28:03.652Z,6.63
2022-08-25T14:30:36.559Z,7.75
2022-08-25T14:33:04.611Z,6.78
2022-08-25T14:35:34.664Z,7.13
2022-08-25T14:38:10.279Z,6.60
2022-08-25T14:40:38.774Z,7.28
2022-08-25T14:43:09.495Z,6.78
2022-08-25T14:45:40.469Z,7.78
2022-08-25T14:48:20.241Z,7.28
2022-08-25T14:50:47.529Z,7.28
2022-08-25T14:53:17.977Z,6.72
2022-08-25T14:55:45.069Z,6.95
2022-08-25T14:58:12.382Z,7.10
2022-08-25T15:00:45.375Z,6.22
2022-08-25T15:03:17.056Z,6.45
2022-08-25T15:05:45.088Z,6.35
2022-08-25T15:08:33.246Z,5.90
2022-08-25T15:11:00.737Z,6.05
2022-08-25T15:13:28.328Z,6.72
2022-08-25T15:15:58.103Z,6.43
2022-08-25T15:18:26.138Z,6.38
2022-08-25T15:20:53.240Z,5.70
2022-08-25T15:23:20.734Z,5.95
2022-08-25T15:25:52.835Z,6.93
2022-08-25T15:28:22.327Z,6.55
2022-08-25T15:30:50.637Z,6.32
2022-08-25T15:33:17.869Z,6.40
2022-08-25T15:35:45.884Z,5.57
2022-08-25T15:38:13.512Z,6.15
2022-08-25T15:40:40.793Z,6.78
2022-08-25T15:43:07.903Z,6.47
2022-08-25T15:45:38.443Z,6.40
2022-08-25T15:48:06.861Z,5.97
2022-08-25T15:50:37.291Z,6.32
2022-08-25T15:53:08.315Z,6.23
2022-08-25T15:55:41.181Z,7.20
2022-08-25T15:58:08.904Z,6.82
2022-08-25T16:00:37.828Z,6.45
2022-08-25T16:03:07.033Z,5.90
2022-08-25T16:05:37.506Z,6.40
2022-08-25T16:08:06.585Z,7.70
2022-08-25T16:10:38.806Z,7.53
2022-08-25T16:13:08.654Z,6.32
2022-08-25T16:15:36.565Z,6.97
2022-08-25T16:18:05.917Z,6.25
2022-08-25T16:20:36.604Z,6.50
2022-08-25T16:23:04.480Z,7.05
2022-08-25T16:25:32.459Z,6.95
2022-08-25T16:27:59.809Z,7.72
2022-08-25T16:30:27.085Z,7.10
2022-08-25T16:32:54.118Z,6.32
2022-08-25T16:35:21.205Z,6.63
2022-08-25T16:37:49.645Z,6.95
2022-08-25T16:40:20.005Z,6.78
2022-08-25T16:42:47.279Z,6.35
2022-08-25T16:45:14.678Z,6.63
2022-08-25T16:47:42.760Z,6.65
2022-08-25T16:50:10.988Z,6.53
2022-08-25T16:52:58.258Z,6.82
2022-08-25T16:55:39.310Z,6.80
2022-08-25T16:58:08.218Z,6.55
2022-08-25T17:00:37.946Z,7.18
2022-08-25T17:03:06.276Z,7.07
2022-08-25T17:05:39.952Z,6.82
2022-08-25T17:08:25.626Z,7.07
2022-08-25T17:10:53.203Z,7.18
2022-08-25T17:13:23.146Z,6.93
2022-08-25T17:15:52.452Z,7.47
2022-08-25T17:18:19.809Z,7.35
2022-08-25T17:20:48.735Z,6.75
2022-08-25T17:23:18.435Z,7.22
2022-08-25T17:25:50.412Z,7.32
2022-08-25T17:28:18.392Z,7.93
2022-08-25T17:30:46.355Z,6.88
2022-08-25T17:33:14.382Z,7.18
2022-08-25T17:35:45.168Z,7.97
2022-08-25T17:38:15.564Z,7.25
2022-08-25T17:40:43.602Z,7.43
2022-08-25T17:43:11.194Z,7.47
2022-08-25T17:45:40.226Z,7.13
2022-08-25T17:48:09.217Z,7.50
2022-08-25T17:50:39.377Z,7.40
2022-08-25T17:53:07.991Z,7.03
2022-08-25T17:55:36.878Z,7.07
2022-08-25T17:58:04.851Z,7.68
2022-08-25T18:00:32.972Z,7.00
2022-08-25T18:03:00.638Z,6.88
2022-08-25T18:05:28.257Z,7.93
2022-08-25T18:07:56.702Z,6.97
2022-08-25T18:10:25.558Z,7.65
2022-08-25T18:12:52.778Z,7.10
2022-08-25T18:15:20.326Z,7.70
2022-08-25T18:17:47.592Z,6.90
2022-08-25T18:20:14.962Z,7.35
2022-08-25T18:22:44.062Z,7.90
2022-08-25T18:25:14.449Z,8.18
2022-08-25T18:30:10.261Z,8.15
2022-08-25T18:32:37.627Z,7.45
2022-08-25T18:35:06.322Z,7.22
2022-08-25T18:37:51.847Z,7.45
2022-08-25T18:40:25.515Z,7.40
2022-08-25T18:43:10.933Z,7.13
2022-08-25T18:45:52.301Z,8.55
2022-08-25T18:48:27.759Z,6.88
2022-08-25T18:51:05.189Z,7.60
2022-08-25T18:53:50.518Z,7.38
2022-08-25T18:56:29.029Z,7.78
2022-08-25T18:59:01.306Z,7.97
2022-08-25T19:01:33.352Z,7.03
2022-08-25T19:04:03.132Z,7.38
2022-08-25T19:06:35.440Z,7.65
2022-08-25T19:09:09.096Z,7.50
2022-08-25T19:11:37.527Z,7.05
2022-08-25T19:14:12.489Z,7.07
2022-08-25T19:16:50.026Z,7.43
2022-08-25T19:19:19.401Z,7.97
2022-08-25T19:22:01.354Z,7.30
2022-08-25T19:24:34.947Z,8.00
2022-08-25T19:27:04.665Z,7.63
2022-08-25T19:29:33.158Z,8.32
2022-08-25T19:32:01.441Z,7.88
2022-08-25T19:34:33.569Z,8.05
2022-08-25T19:37:04.302Z,7.95
2022-08-25T19:39:33.468Z,7.57
2022-08-25T19:42:00.749Z,8.00
2022-08-25T19:44:30.811Z,7.90
2022-08-25T19:46:58.164Z,8.52
2022-08-25T19:49:31.660Z,8.18
2022-08-25T19:52:00.243Z,8.05
2022-08-25T19:54:32.780Z,7.95
2022-08-25T19:57:00.441Z,8.80
2022-08-25T19:59:36.637Z,9.10
2022-08-25T20:02:31.431Z,9.07
2022-08-25T20:05:00.052Z,7.63
2022-08-25T20:07:30.491Z,7.70
2022-08-25T20:09:59.145Z,7.80
2022-08-25T20:12:27.309Z,7.82
2022-08-25T20:14:55.390Z,8.13
2022-08-25T20:17:24.879Z,8.00
2022-08-25T20:19:59.178Z,8.40
2022-08-25T20:22:28.803Z,7.43
2022-08-25T20:25:02.465Z,8.55
2022-08-25T20:27:37.277Z,7.85
2022-08-25T20:30:13.389Z,7.68
2022-08-25T20:32:41.157Z,8.02
2022-08-25T20:35:10.637Z,8.32
2022-08-25T20:37:42.425Z,7.47
2022-08-25T20:40:11.403Z,7.85
2022-08-25T20:42:40.563Z,7.30
2022-08-25T20:45:08.909Z,7.80
2022-08-25T20:47:36.486Z,8.43
2022-08-25T20:50:06.875Z,8.73
2022-08-25T20:52:34.991Z,7.85
2022-08-25T20:55:02.286Z,8.40
2022-08-25T20:57:30.209Z,7.65
2022-08-25T20:59:58.216Z,8.20
2022-08-25T21:02:27.105Z,7.80
2022-08-25T21:04:57.114Z,8.07
2022-08-25T21:07:24.435Z,8.52
2022-08-25T21:09:52.179Z,7.00
2022-08-25T21:12:19.996Z,7.93
2022-08-25T21:14:47.080Z,9.27
2022-08-25T21:17:15.573Z,8.15
2022-08-25T21:22:14.012Z,9.40
2022-08-25T21:24:41.350Z,9.23
2022-08-25T21:27:08.680Z,9.02
2022-08-25T21:29:35.754Z,9.07
2022-08-25T21:32:03.009Z,8.95
2022-08-25T21:34:31.223Z,8.88
2022-08-25T21:36:59.398Z,8.60
2022-08-25T21:39:29.810Z,8.45
2022-08-25T21:41:59.933Z,8.75
2022-08-25T21:44:28.108Z,9.55
2022-08-25T21:46:56.232Z,8.80
2022-08-25T21:49:25.203Z,8.90
2022-08-25T21:52:02.397Z,9.27
2022-08-25T21:54:32.293Z,9.02
2022-08-25T21:57:02.730Z,8.80
2022-08-25T21:59:36.393Z,8.30
2022-08-25T22:02:07.827Z,8.55
2022-08-25T22:04:38.912Z,9.10
2022-08-25T22:07:07.366Z,9.35
2022-08-25T22:09:35.684Z,8.63
2022-08-25T22:12:04.007Z,8.80
2022-08-25T22:14:32.653Z,8.90
2022-08-25T22:16:59.991Z,8.77
2022-08-25T22:19:27.635Z,9.13
2022-08-25T22:21:56.126Z,7.50
2022-08-25T22:24:28.111Z,8.38
2022-08-25T22:26:56.179Z,8.98
2022-08-25T22:29:25.408Z,8.70
2022-08-25T22:31:59.876Z,9.63
2022-08-25T22:34:33.891Z,8.43
2022-08-25T22:37:03.502Z,10.50
2022-08-25T22:39:34.245Z,10.60
2022-08-25T22:42:03.308Z,9.70
2022-08-25T22:44:31.098Z,9.80
2022-08-25T22:46:58.159Z,8.98
2022-08-25T22:49:28.870Z,9.82
2022-08-25T22:51:56.207Z,9.43
2022-08-25T22:54:25.313Z,9.50
2022-08-25T22:56:53.407Z,9.52
2022-08-25T22:59:22.055Z,9.45
2022-08-25T23:01:50.085Z,9.15
2022-08-25T23:04:17.999Z,8.50
2022-08-25T23:06:47.160Z,8.98
2022-08-25T23:09:14.738Z,9.63
2022-08-25T23:11:42.726Z,9.18
2022-08-25T23:14:11.395Z,8.55
2022-08-25T23:16:39.775Z,9.65
2022-08-25T23:19:14.272Z,9.15
2022-08-25T23:22:03.787Z,9.07
2022-08-25T23:24:31.949Z,9.80
2022-08-25T23:27:00.914Z,9.10
2022-08-25T23:29:28.528Z,8.85
2022-08-25T23:31:56.387Z,10.02
2022-08-25T23:34:24.024Z,10.25
2022-08-25T23:36:51.557Z,9.88
2022-08-25T23:39:18.833Z,9.45
2022-08-25T23:41:49.793Z,10.90
2022-08-25T23:44:18.709Z,10.10
2022-08-25T23:46:47.811Z,11.65
2022-08-25T23:49:18.164Z,12.65
2022-08-25T23:51:47.697Z,11.45
2022-08-25T23:54:17.411Z,10.73
2022-08-25T23:56:51.720Z,10.07
2022-08-25T23:59:24.192Z,11.20
